createdAt,value
2023-03-08T00:05:01.830Z,99.90
2023-03-08T00:10:05.072Z,99.90
2023-03-08T00:15:07.480Z,99.90
2023-03-08T00:20:11.203Z,99.90
2023-03-08T00:25:16.393Z,99.90
2023-03-08T00:30:18.207Z,99.90
2023-03-08T00:35:20.594Z,99.90
2023-03-08T00:40:22.412Z,99.90
2023-03-08T00:45:24.199Z,99.90
2023-03-08T00:50:26.006Z,99.90
2023-03-08T00:55:27.826Z,99.90
2023-03-08T01:00:30.420Z,99.90
2023-03-08T01:05:32.205Z,98.70
2023-03-08T01:10:34.296Z,97.80
2023-03-08T01:15:37.385Z,97.10
2023-03-08T01:20:39.217Z,96.30
2023-03-08T01:25:41.022Z,95.50
2023-03-08T01:30:42.800Z,94.60
2023-03-08T01:35:44.645Z,93.70
2023-03-08T01:40:46.454Z,92.70
2023-03-08T01:46:15.925Z,92.40
2023-03-08T01:51:22.065Z,91.60
2023-03-08T01:56:25.013Z,91.10
2023-03-08T02:01:27.246Z,90.30
2023-03-08T02:06:29.606Z,90.10
2023-03-08T02:11:33.859Z,89.10
2023-03-08T02:16:35.669Z,87.90
2023-03-08T02:21:37.699Z,87.20
2023-03-08T02:26:39.518Z,87.10
2023-03-08T02:31:41.387Z,87.10
2023-03-08T02:36:43.266Z,87.50
2023-03-08T02:41:45.066Z,88.00
2023-03-08T02:46:46.916Z,88.30
2023-03-08T02:51:48.777Z,88.60
2023-03-08T02:56:50.563Z,89.20
2023-03-08T03:01:52.910Z,89.80
2023-03-08T03:06:55.035Z,90.10
2023-03-08T03:11:56.867Z,90.30
2023-03-08T03:16:58.924Z,90.60
2023-03-08T03:22:00.742Z,90.80
2023-03-08T03:27:02.537Z,90.90
2023-03-08T03:32:04.540Z,90.90
2023-03-08T03:37:06.367Z,91.00
2023-03-08T03:42:08.994Z,91.00
2023-03-08T03:47:10.884Z,90.80
2023-03-08T03:52:12.743Z,90.80
2023-03-08T03:57:14.592Z,90.70
2023-03-08T04:02:16.378Z,91.00
2023-03-08T04:07:18.850Z,90.70
2023-03-08T04:12:20.688Z,90.70
2023-03-08T04:17:22.488Z,90.70
2023-03-08T04:22:24.277Z,90.70
2023-03-08T04:27:26.148Z,90.60
2023-03-08T04:32:27.957Z,90.50
2023-03-08T04:37:30.662Z,90.60
2023-03-08T04:42:32.462Z,90.80
2023-03-08T04:47:34.240Z,90.80
2023-03-08T04:52:36.009Z,90.80
2023-03-08T04:57:37.824Z,90.90
2023-03-08T05:02:39.737Z,91.00
2023-03-08T05:07:41.943Z,91.10
2023-03-08T05:12:43.785Z,91.20
2023-03-08T05:17:45.627Z,91.30
2023-03-08T05:22:58.292Z,91.30
2023-03-08T05:28:00.951Z,91.40
2023-03-08T05:33:02.729Z,91.40
2023-03-08T05:38:04.512Z,91.50
2023-03-08T05:43:06.287Z,91.50
2023-03-08T05:48:08.143Z,91.40
2023-03-08T05:53:09.966Z,91.40
2023-03-08T05:58:11.740Z,91.40
2023-03-08T06:03:13.678Z,91.40
2023-03-08T06:08:15.685Z,91.40
2023-03-08T06:13:17.496Z,91.50
2023-03-08T06:18:19.304Z,91.70
2023-03-08T06:23:21.085Z,91.40
2023-03-08T06:28:23.404Z,90.90
2023-03-08T06:33:27.638Z,90.10
2023-03-08T06:38:33.007Z,88.90
2023-03-08T06:43:35.822Z,86.60
2023-03-08T06:48:37.874Z,85.30
2023-03-08T06:53:39.911Z,83.90
2023-03-08T06:58:41.963Z,82.70
2023-03-08T07:03:45.399Z,81.20
2023-03-08T07:08:47.576Z,80.20
2023-03-08T07:13:49.397Z,79.70
2023-03-08T07:18:51.253Z,79.10
2023-03-08T07:23:53.337Z,76.70
2023-03-08T07:28:55.914Z,77.00
2023-03-08T07:33:57.835Z,77.90
2023-03-08T07:39:00.912Z,77.50
2023-03-08T07:44:03.601Z,76.60
2023-03-08T07:49:10.433Z,75.60
2023-03-08T07:54:12.982Z,74.40
2023-03-08T07:59:15.013Z,72.60
2023-03-08T08:04:17.165Z,71.70
2023-03-08T08:09:19.332Z,69.60
2023-03-08T08:14:21.235Z,68.50
2023-03-08T08:19:23.452Z,65.40
2023-03-08T08:24:25.285Z,65.60
2023-03-08T08:29:27.138Z,63.40
2023-03-08T08:34:28.925Z,64.00
2023-03-08T08:39:33.555Z,64.80
2023-03-08T08:44:35.556Z,62.50
2023-03-08T08:49:37.538Z,62.10
2023-03-08T08:54:40.007Z,63.40
2023-03-08T08:59:41.881Z,62.70
2023-03-08T09:04:43.777Z,62.60
2023-03-08T09:09:46.889Z,63.10
2023-03-08T09:14:49.135Z,62.60
2023-03-08T09:19:51.863Z,61.40
2023-03-08T09:24:53.744Z,59.60
2023-03-08T09:29:55.532Z,60.50
2023-03-08T09:34:57.984Z,61.40
2023-03-08T09:39:59.895Z,61.00
2023-03-08T09:45:23.898Z,59.90
2023-03-08T09:50:32.963Z,59.60
2023-03-08T09:55:37.515Z,60.00
2023-03-08T10:00:40.715Z,59.80
2023-03-08T10:05:42.431Z,62.30
2023-03-08T10:10:56.252Z,62.20
2023-03-08T10:16:13.124Z,60.60
2023-03-08T10:21:18.027Z,62.30
2023-03-08T10:26:19.809Z,63.20
2023-03-08T10:31:27.135Z,62.80
2023-03-08T10:36:29.058Z,60.30
2023-03-08T10:41:32.911Z,59.60
2023-03-08T10:46:34.952Z,61.30
2023-03-08T10:51:36.868Z,60.00
2023-03-08T10:57:00.273Z,59.40
2023-03-08T11:02:15.369Z,58.90
2023-03-08T11:07:24.223Z,59.10
2023-03-08T11:12:26.798Z,59.60
2023-03-08T11:17:35.623Z,59.40
2023-03-08T11:23:04.477Z,59.60
2023-03-08T11:28:38.427Z,58.70
2023-03-08T11:34:02.465Z,59.00
2023-03-08T11:39:16.962Z,59.60
2023-03-08T11:44:40.499Z,60.20
2023-03-08T11:49:42.254Z,59.90
2023-03-08T11:55:11.939Z,60.60
2023-03-08T12:00:23.688Z,61.60
2023-03-08T12:05:49.371Z,62.40
2023-03-08T12:10:56.763Z,64.20
2023-03-08T12:16:18.952Z,66.40
2023-03-08T12:21:34.315Z,67.50
2023-03-08T12:26:43.894Z,69.30
2023-03-08T12:31:47.338Z,70.10
2023-03-08T12:36:49.281Z,71.40
2023-03-08T12:41:58.734Z,71.40
2023-03-08T12:47:19.178Z,70.80
2023-03-08T12:52:21.007Z,69.60
2023-03-08T12:57:30.561Z,70.80
2023-03-08T13:02:34.440Z,72.20
2023-03-08T13:07:52.957Z,73.60
2023-03-08T13:13:39.230Z,75.10
2023-03-08T13:19:00.497Z,75.70
2023-03-08T13:24:12.016Z,75.50
2023-03-08T13:29:18.837Z,76.50
2023-03-08T13:34:29.915Z,76.00
2023-03-08T13:39:33.165Z,75.70
2023-03-08T13:44:35.258Z,75.30
2023-03-08T13:49:38.590Z,76.00
2023-03-08T13:54:45.199Z,76.30
2023-03-08T13:59:54.573Z,75.70
2023-03-08T14:04:57.938Z,75.70
2023-03-08T14:10:00.230Z,75.50
2023-03-08T14:15:05.290Z,75.60
2023-03-08T14:20:21.871Z,76.00
2023-03-08T14:25:30.175Z,76.40
2023-03-08T14:30:32.423Z,76.30
2023-03-08T14:35:37.522Z,76.90
2023-03-08T14:40:46.898Z,77.20
2023-03-08T14:46:03.403Z,78.10
2023-03-08T14:51:17.317Z,78.70
2023-03-08T14:56:19.156Z,79.60
2023-03-08T15:01:39.473Z,81.20
2023-03-08T15:06:41.393Z,81.40
2023-03-08T15:11:44.484Z,81.60
2023-03-08T15:16:46.332Z,82.10
2023-03-08T15:21:48.582Z,81.90
2023-03-08T15:26:52.708Z,82.20
2023-03-08T15:31:56.515Z,82.50
2023-03-08T15:36:58.781Z,82.90
2023-03-08T15:42:00.820Z,83.50
2023-03-08T15:47:02.701Z,84.10
2023-03-08T15:52:06.931Z,84.40
2023-03-08T15:57:10.178Z,85.10
2023-03-08T16:02:16.702Z,85.40
2023-03-08T16:07:19.332Z,85.70
2023-03-08T16:12:26.752Z,86.20
2023-03-08T16:17:33.358Z,86.20
2023-03-08T16:22:35.560Z,86.80
2023-03-08T16:27:38.373Z,86.90
2023-03-08T16:32:43.472Z,87.40
2023-03-08T16:37:45.586Z,88.30
2023-03-08T16:42:50.592Z,88.30
2023-03-08T16:47:52.458Z,89.20
2023-03-08T16:52:54.930Z,89.00
2023-03-08T16:57:56.809Z,89.70
2023-03-08T17:02:58.887Z,90.10
2023-03-08T17:08:00.969Z,90.10
2023-03-08T17:13:05.911Z,90.30
2023-03-08T17:18:08.507Z,90.70
2023-03-08T17:23:11.728Z,90.90
2023-03-08T17:28:15.842Z,90.90
2023-03-08T17:33:17.744Z,91.00
2023-03-08T17:38:20.096Z,91.30
2023-03-08T17:43:21.975Z,91.60
2023-03-08T17:48:23.973Z,92.00
2023-03-08T17:53:25.766Z,91.90
2023-03-08T17:58:28.463Z,91.90
2023-03-08T18:03:30.249Z,92.10
2023-03-08T18:08:33.154Z,91.80
2023-03-08T18:13:35.011Z,92.60
2023-03-08T18:18:36.885Z,92.80
2023-03-08T18:23:41.996Z,92.80
2023-03-08T18:28:43.898Z,93.60
2023-03-08T18:33:46.145Z,93.80
2023-03-08T18:38:48.207Z,93.90
2023-03-08T18:43:51.336Z,95.10
2023-03-08T18:48:53.740Z,95.50
2023-03-08T18:53:56.066Z,96.40
2023-03-08T18:59:00.607Z,96.70
2023-03-08T19:04:09.776Z,96.80
2023-03-08T19:09:16.866Z,97.90
2023-03-08T19:14:18.692Z,98.60
2023-03-08T19:19:20.628Z,99.60
2023-03-08T19:24:22.528Z,99.90
2023-03-08T19:29:26.668Z,99.90
2023-03-08T19:34:40.345Z,99.90
2023-03-08T19:39:43.673Z,99.90
2023-03-08T19:44:48.408Z,99.90
2023-03-08T19:49:50.308Z,99.90
2023-03-08T19:54:52.455Z,99.90
2023-03-08T19:59:57.630Z,99.90
2023-03-08T20:05:00.468Z,99.90
2023-03-08T20:10:15.457Z,99.90
2023-03-08T20:15:18.304Z,99.90
2023-03-08T20:20:21.253Z,99.90
2023-03-08T20:25:23.716Z,99.90
2023-03-08T20:30:26.734Z,99.90
2023-03-08T20:35:28.772Z,99.90
2023-03-08T20:40:30.636Z,99.90
2023-03-08T20:45:32.565Z,99.90
2023-03-08T20:50:34.377Z,99.90
2023-03-08T20:55:38.834Z,99.90
2023-03-08T21:00:41.527Z,99.90
2023-03-08T21:05:43.824Z,99.90
2023-03-08T21:10:45.613Z,99.90
2023-03-08T21:15:48.551Z,99.90
2023-03-08T21:20:50.352Z,99.90
2023-03-08T21:25:53.407Z,99.90
2023-03-08T21:30:55.460Z,99.90
2023-03-08T21:35:58.326Z,99.90
2023-03-08T21:41:00.145Z,99.90
2023-03-08T21:46:04.296Z,99.90
2023-03-08T21:51:06.624Z,99.90
2023-03-08T21:56:09.803Z,99.90
2023-03-08T22:01:23.814Z,99.90
2023-03-08T22:06:25.715Z,99.90
2023-03-08T22:11:27.648Z,99.90
2023-03-08T22:16:30.669Z,99.90
2023-03-08T22:21:33.366Z,99.90
2023-03-08T22:26:35.472Z,99.90
2023-03-08T22:31:37.329Z,99.90
2023-03-08T22:36:40.733Z,99.90
2023-03-08T22:41:42.692Z,99.90
2023-03-08T22:46:44.617Z,99.90
2023-03-08T22:51:46.586Z,99.90
2023-03-08T22:56:49.964Z,99.90
2023-03-08T23:01:53.194Z,99.90
2023-03-08T23:06:55.037Z,99.90
2023-03-08T23:12:02.751Z,99.90
2023-03-08T23:17:04.815Z,99.90
2023-03-08T23:22:06.608Z,99.90
2023-03-08T23:27:08.970Z,99.90
2023-03-08T23:32:11.170Z,99.90
2023-03-08T23:37:13.120Z,99.90
2023-03-08T23:42:14.998Z,99.90
2023-03-08T23:47:16.896Z,99.90
2023-03-08T23:52:18.688Z,99.90
2023-03-08T23:57:20.480Z,99.90
